JST891 YHBA-YSSY
Flight info
| Callsign | JST891 |
|---|---|
| Flight time | 1h 28m |
| Altitude | 36000 |
| Route | DCT HAAVI T55 ITIDE DCT MUDDL DCT HUUGO H91 IGDAM H652 BOREE DCT |
| Aircraft | A320/M-SDE3FGHIRWY/LB1 |
Departure
| Time | 2026-05-04 04:05 |
|---|---|
| Airport | Hervey Bay Airport (YHBA) |
Arrival
| Time | 2026-05-04 05:33 |
|---|---|
| Airport | Sydney Kingsford Smith International Airport (YSSY) |
| Time | Latitude | Longitude | Altitude | Speed | Heading |
|---|---|---|---|---|---|
| 2026-05-04 03:52 | -25.32005 | 152.88432 | 61 ft | 0 kts | 81° |
| 2026-05-04 04:00 | -25.32006 | 152.88434 | 61 ft | 1 kts | 96° |
| 2026-05-04 04:00 | -25.32021 | 152.88442 | 56 ft | 3 kts | 177° |
| 2026-05-04 04:01 | -25.32059 | 152.88443 | 52 ft | 8 kts | 147° |
| 2026-05-04 04:01 | -25.32111 | 152.88470 | 57 ft | 12 kts | 198° |
| 2026-05-04 04:01 | -25.32175 | 152.88402 | 52 ft | 14 kts | 265° |
| 2026-05-04 04:01 | -25.32130 | 152.88304 | 55 ft | 15 kts | 299° |
| 2026-05-04 04:02 | -25.32078 | 152.88198 | 54 ft | 16 kts | 298° |
| 2026-05-04 04:02 | -25.32025 | 152.88089 | 60 ft | 16 kts | 299° |
| 2026-05-04 04:02 | -25.31965 | 152.87971 | 57 ft | 19 kts | 298° |
| 2026-05-04 04:02 | -25.31897 | 152.87833 | 57 ft | 21 kts | 298° |
| 2026-05-04 04:03 | -25.31820 | 152.87679 | 50 ft | 25 kts | 298° |
| 2026-05-04 04:03 | -25.31732 | 152.87501 | 51 ft | 27 kts | 298° |
| 2026-05-04 04:03 | -25.31641 | 152.87311 | 50 ft | 29 kts | 297° |
| 2026-05-04 04:03 | -25.31593 | 152.87198 | 58 ft | 9 kts | 280° |
| 2026-05-04 04:04 | -25.31576 | 152.87177 | 59 ft | 4 kts | 65° |
| 2026-05-04 04:04 | -25.31590 | 152.87213 | 52 ft | 7 kts | 115° |
| 2026-05-04 04:04 | -25.31598 | 152.87231 | 58 ft | 10 kts | 117° |
| 2026-05-04 04:04 | -25.31768 | 152.87572 | 54 ft | 86 kts | 118° |
| 2026-05-04 04:05 | -25.32143 | 152.88325 | 58 ft | 137 kts | 119° |
| 2026-05-04 04:05 | -25.32651 | 152.89300 | 507 ft | 144 kts | 120° |
| 2026-05-04 04:05 | -25.33124 | 152.90250 | 1227 ft | 140 kts | 119° |
| 2026-05-04 04:05 | -25.33614 | 152.91165 | 1806 ft | 139 kts | 132° |
| 2026-05-04 04:06 | -25.34504 | 152.91724 | 2011 ft | 159 kts | 155° |
| 2026-05-04 04:06 | -25.35578 | 152.92289 | 2192 ft | 182 kts | 152° |
| 2026-05-04 04:06 | -25.36783 | 152.92964 | 2392 ft | 206 kts | 152° |
| 2026-05-04 04:06 | -25.38135 | 152.93731 | 2662 ft | 231 kts | 152° |
| 2026-05-04 04:07 | -25.39633 | 152.94579 | 3177 ft | 249 kts | 152° |
| 2026-05-04 04:07 | -25.41194 | 152.95460 | 4024 ft | 255 kts | 152° |
| 2026-05-04 04:07 | -25.42783 | 152.96356 | 4872 ft | 259 kts | 152° |
| 2026-05-04 04:07 | -25.44405 | 152.97267 | 5702 ft | 264 kts | 152° |
| 2026-05-04 04:08 | -25.46059 | 152.98192 | 6545 ft | 268 kts | 152° |
| 2026-05-04 04:08 | -25.47740 | 152.99137 | 7408 ft | 273 kts | 152° |
| 2026-05-04 04:08 | -25.49448 | 153.00098 | 8229 ft | 278 kts | 152° |
| 2026-05-04 04:08 | -25.51184 | 153.01079 | 9014 ft | 282 kts | 152° |
| 2026-05-04 04:09 | -25.52946 | 153.02075 | 9729 ft | 287 kts | 152° |
| 2026-05-04 04:09 | -25.54739 | 153.03091 | 10321 ft | 296 kts | 152° |
| 2026-05-04 04:09 | -25.56641 | 153.04171 | 10500 ft | 319 kts | 152° |
| 2026-05-04 04:09 | -25.58686 | 153.05330 | 10632 ft | 341 kts | 152° |
| 2026-05-04 04:10 | -25.60858 | 153.06556 | 10761 ft | 361 kts | 153° |
| 2026-05-04 04:10 | -25.63152 | 153.07848 | 10906 ft | 378 kts | 153° |
| 2026-05-04 04:10 | -25.65521 | 153.09185 | 11325 ft | 386 kts | 153° |
| 2026-05-04 04:10 | -25.67924 | 153.10546 | 11837 ft | 390 kts | 153° |
| 2026-05-04 04:11 | -25.70354 | 153.11926 | 12344 ft | 394 kts | 152° |
| 2026-05-04 04:11 | -25.72809 | 153.13326 | 12825 ft | 399 kts | 152° |
| 2026-05-04 04:11 | -25.75300 | 153.14737 | 13316 ft | 404 kts | 154° |
| 2026-05-04 04:11 | -25.77941 | 153.15858 | 13797 ft | 408 kts | 163° |
| 2026-05-04 04:12 | -25.80630 | 153.16776 | 14295 ft | 411 kts | 164° |
| 2026-05-04 04:12 | -25.83377 | 153.17716 | 14785 ft | 415 kts | 164° |
| 2026-05-04 04:12 | -25.86148 | 153.18663 | 15251 ft | 418 kts | 164° |
| 2026-05-04 04:12 | -25.88944 | 153.19622 | 15717 ft | 422 kts | 164° |
| 2026-05-04 04:13 | -25.91764 | 153.20590 | 16162 ft | 426 kts | 164° |
| 2026-05-04 04:13 | -25.94604 | 153.21573 | 16607 ft | 430 kts | 164° |
| 2026-05-04 04:13 | -25.97470 | 153.22569 | 17052 ft | 433 kts | 165° |
| 2026-05-04 04:13 | -26.00358 | 153.23572 | 17487 ft | 436 kts | 165° |
| 2026-05-04 04:14 | -26.03269 | 153.24581 | 17919 ft | 440 kts | 165° |
| 2026-05-04 04:14 | -26.06206 | 153.25594 | 18352 ft | 444 kts | 165° |
| 2026-05-04 04:14 | -26.09164 | 153.26608 | 18774 ft | 447 kts | 165° |
| 2026-05-04 04:14 | -26.12146 | 153.27632 | 19184 ft | 450 kts | 166° |
| 2026-05-04 04:15 | -26.15145 | 153.28669 | 19593 ft | 453 kts | 165° |
| 2026-05-04 04:15 | -26.18172 | 153.29718 | 20003 ft | 456 kts | 166° |
| 2026-05-04 04:15 | -26.21208 | 153.30770 | 20398 ft | 459 kts | 166° |
| 2026-05-04 04:15 | -26.24265 | 153.31830 | 20774 ft | 462 kts | 166° |
| 2026-05-04 04:16 | -26.27346 | 153.32900 | 21139 ft | 465 kts | 166° |
| 2026-05-04 04:16 | -26.30210 | 153.33893 | 21472 ft | 467 kts | 166° |
| 2026-05-04 04:16 | -26.33326 | 153.34974 | 21824 ft | 470 kts | 166° |
| 2026-05-04 04:16 | -26.36458 | 153.36059 | 22161 ft | 473 kts | 166° |
| 2026-05-04 04:17 | -26.39606 | 153.37152 | 22479 ft | 475 kts | 167° |
| 2026-05-04 04:17 | -26.42772 | 153.38253 | 22806 ft | 478 kts | 167° |
| 2026-05-04 04:17 | -26.45956 | 153.39361 | 23117 ft | 480 kts | 167° |
| 2026-05-04 04:17 | -26.49158 | 153.40477 | 23421 ft | 483 kts | 167° |
| 2026-05-04 04:18 | -26.52372 | 153.41599 | 23713 ft | 485 kts | 167° |
| 2026-05-04 04:18 | -26.55599 | 153.42730 | 24002 ft | 487 kts | 167° |
| 2026-05-04 04:18 | -26.58841 | 153.43868 | 24271 ft | 490 kts | 167° |
| 2026-05-04 04:18 | -26.62106 | 153.45010 | 24536 ft | 492 kts | 167° |
| 2026-05-04 04:19 | -26.65374 | 153.46152 | 24880 ft | 492 kts | 167° |
| 2026-05-04 04:19 | -26.68643 | 153.47287 | 25307 ft | 490 kts | 169° |
| 2026-05-04 04:19 | -26.71951 | 153.48071 | 25717 ft | 483 kts | 178° |
| 2026-05-04 04:19 | -26.75234 | 153.48258 | 26124 ft | 474 kts | 187° |
| 2026-05-04 04:20 | -26.78485 | 153.47883 | 26553 ft | 466 kts | 197° |
| 2026-05-04 04:20 | -26.81651 | 153.47170 | 26973 ft | 463 kts | 198° |
| 2026-05-04 04:20 | -26.84809 | 153.46456 | 27418 ft | 462 kts | 198° |
| 2026-05-04 04:20 | -26.87951 | 153.45747 | 27848 ft | 460 kts | 198° |
| 2026-05-04 04:21 | -26.91086 | 153.45038 | 28270 ft | 460 kts | 198° |
| 2026-05-04 04:21 | -26.94220 | 153.44330 | 28713 ft | 458 kts | 198° |
| 2026-05-04 04:21 | -26.97341 | 153.43629 | 29164 ft | 457 kts | 198° |
| 2026-05-04 04:21 | -27.00449 | 153.42930 | 29602 ft | 455 kts | 198° |
| 2026-05-04 04:22 | -27.03482 | 153.42251 | 30038 ft | 454 kts | 199° |
| 2026-05-04 04:22 | -27.06571 | 153.41560 | 30486 ft | 452 kts | 199° |
| 2026-05-04 04:22 | -27.09653 | 153.40868 | 30930 ft | 451 kts | 199° |
| 2026-05-04 04:22 | -27.12722 | 153.40174 | 31383 ft | 449 kts | 199° |
| 2026-05-04 04:23 | -27.15779 | 153.39479 | 31825 ft | 447 kts | 199° |
| 2026-05-04 04:23 | -27.18778 | 153.38798 | 32279 ft | 444 kts | 200° |
| 2026-05-04 04:23 | -27.21842 | 153.38102 | 32734 ft | 443 kts | 200° |
| 2026-05-04 04:23 | -27.24815 | 153.37429 | 33177 ft | 441 kts | 200° |
| 2026-05-04 04:24 | -27.27770 | 153.36763 | 33626 ft | 438 kts | 200° |
| 2026-05-04 04:24 | -27.30748 | 153.36091 | 34074 ft | 436 kts | 200° |
| 2026-05-04 04:24 | -27.33710 | 153.35420 | 34519 ft | 433 kts | 200° |
| 2026-05-04 04:24 | -27.36616 | 153.34643 | 34902 ft | 423 kts | 208° |
| 2026-05-04 04:25 | -27.39295 | 153.33389 | 35263 ft | 411 kts | 217° |
| 2026-05-04 04:25 | -27.41819 | 153.31907 | 35585 ft | 409 kts | 217° |
| 2026-05-04 04:25 | -27.44341 | 153.30428 | 35903 ft | 408 kts | 217° |
| 2026-05-04 04:25 | -27.46860 | 153.28952 | 36061 ft | 409 kts | 217° |
| 2026-05-04 04:26 | -27.51109 | 153.26457 | 36082 ft | 420 kts | 217° |
| 2026-05-04 04:26 | -27.56331 | 153.23405 | 36081 ft | 425 kts | 216° |
| 2026-05-04 04:27 | -27.61601 | 153.20338 | 36082 ft | 428 kts | 216° |
| 2026-05-04 04:27 | -27.66899 | 153.17239 | 36081 ft | 430 kts | 216° |
| 2026-05-04 04:28 | -27.72222 | 153.14125 | 36083 ft | 430 kts | 216° |
| 2026-05-04 04:28 | -27.77535 | 153.11004 | 36083 ft | 430 kts | 216° |
| 2026-05-04 04:29 | -27.82850 | 153.07879 | 36083 ft | 431 kts | 216° |
| 2026-05-04 04:29 | -27.88167 | 153.04755 | 36083 ft | 430 kts | 216° |
| 2026-05-04 04:30 | -27.93486 | 153.01623 | 36085 ft | 431 kts | 216° |
| 2026-05-04 04:30 | -27.98769 | 152.98516 | 36082 ft | 431 kts | 217° |
| 2026-05-04 04:31 | -28.04089 | 152.95373 | 36088 ft | 431 kts | 217° |
| 2026-05-04 04:31 | -28.09432 | 152.92278 | 36092 ft | 436 kts | 212° |
| 2026-05-04 04:32 | -28.15104 | 152.89744 | 36090 ft | 438 kts | 211° |
| 2026-05-04 04:32 | -28.20784 | 152.87232 | 36089 ft | 438 kts | 211° |
| 2026-05-04 04:33 | -28.26465 | 152.84707 | 36088 ft | 438 kts | 211° |
| 2026-05-04 04:33 | -28.32140 | 152.82180 | 36088 ft | 438 kts | 211° |
| 2026-05-04 04:34 | -28.37813 | 152.79650 | 36086 ft | 438 kts | 212° |
| 2026-05-04 04:34 | -28.43485 | 152.77118 | 36083 ft | 438 kts | 212° |
| 2026-05-04 04:35 | -28.49156 | 152.74585 | 36085 ft | 438 kts | 212° |
| 2026-05-04 04:35 | -28.54829 | 152.72042 | 36086 ft | 438 kts | 212° |
| 2026-05-04 04:36 | -28.60498 | 152.69496 | 36086 ft | 438 kts | 212° |
| 2026-05-04 04:36 | -28.66177 | 152.66956 | 36091 ft | 438 kts | 212° |
| 2026-05-04 04:37 | -28.77473 | 152.61867 | 36099 ft | 438 kts | 212° |
| 2026-05-04 04:38 | -28.83148 | 152.59315 | 36105 ft | 438 kts | 212° |
| 2026-05-04 04:38 | -28.88569 | 152.56362 | 36108 ft | 429 kts | 218° |
| 2026-05-04 04:39 | -28.93866 | 152.53208 | 36109 ft | 429 kts | 218° |
| 2026-05-04 04:39 | -28.99155 | 152.50056 | 36109 ft | 429 kts | 218° |
| 2026-05-04 04:40 | -29.04444 | 152.46903 | 36111 ft | 429 kts | 218° |
| 2026-05-04 04:40 | -29.09704 | 152.43770 | 36111 ft | 428 kts | 218° |
| 2026-05-04 04:41 | -29.14990 | 152.40616 | 36107 ft | 430 kts | 218° |
| 2026-05-04 04:41 | -29.20288 | 152.37453 | 36114 ft | 429 kts | 218° |
| 2026-05-04 04:42 | -29.25534 | 152.34298 | 36110 ft | 429 kts | 218° |
| 2026-05-04 04:42 | -29.30821 | 152.31131 | 36108 ft | 428 kts | 218° |
| 2026-05-04 04:43 | -29.36107 | 152.27971 | 36114 ft | 428 kts | 218° |
| 2026-05-04 04:43 | -29.41386 | 152.24805 | 36108 ft | 428 kts | 219° |
| 2026-05-04 04:44 | -29.46653 | 152.21632 | 36106 ft | 427 kts | 218° |
| 2026-05-04 04:44 | -29.51911 | 152.18459 | 36099 ft | 428 kts | 219° |
| 2026-05-04 04:45 | -29.57185 | 152.15284 | 36105 ft | 428 kts | 219° |
| 2026-05-04 04:47 | -29.76531 | 152.05785 | 36099 ft | 451 kts | 204° |
| 2026-05-04 04:47 | -29.82625 | 152.04212 | 36095 ft | 451 kts | 205° |
| 2026-05-04 04:48 | -29.88751 | 152.02615 | 36094 ft | 451 kts | 205° |
| 2026-05-04 04:49 | -30.04078 | 151.98607 | 36093 ft | 452 kts | 205° |
| 2026-05-04 04:49 | -30.10215 | 151.96995 | 36100 ft | 452 kts | 205° |
| 2026-05-04 04:50 | -30.16350 | 151.95389 | 36099 ft | 452 kts | 205° |
| 2026-05-04 04:50 | -30.22473 | 151.93776 | 36097 ft | 451 kts | 205° |
| 2026-05-04 04:51 | -30.28596 | 151.92157 | 36094 ft | 452 kts | 205° |
| 2026-05-04 04:51 | -30.34544 | 151.90153 | 36094 ft | 437 kts | 214° |
| 2026-05-04 04:52 | -30.40186 | 151.87533 | 36091 ft | 436 kts | 214° |
| 2026-05-04 04:52 | -30.45816 | 151.84905 | 36085 ft | 436 kts | 214° |
| 2026-05-04 04:53 | -30.51453 | 151.82264 | 36086 ft | 437 kts | 214° |
| 2026-05-04 04:53 | -30.57097 | 151.79626 | 36077 ft | 437 kts | 214° |
| 2026-05-04 04:54 | -30.62546 | 151.77080 | 36076 ft | 439 kts | 214° |
| 2026-05-04 04:54 | -30.68210 | 151.74441 | 36079 ft | 439 kts | 213° |
| 2026-05-04 04:55 | -30.73885 | 151.71795 | 36084 ft | 439 kts | 214° |
| 2026-05-04 04:55 | -30.79544 | 151.69146 | 36082 ft | 438 kts | 214° |
| 2026-05-04 04:56 | -30.85200 | 151.66487 | 36079 ft | 438 kts | 214° |
| 2026-05-04 04:56 | -30.90864 | 151.63827 | 36078 ft | 440 kts | 214° |
| 2026-05-04 04:57 | -30.96539 | 151.61159 | 36076 ft | 440 kts | 214° |
| 2026-05-04 04:57 | -31.02175 | 151.58502 | 36072 ft | 440 kts | 214° |
| 2026-05-04 04:58 | -31.07863 | 151.55817 | 36070 ft | 441 kts | 214° |
| 2026-05-04 04:58 | -31.13551 | 151.53129 | 36072 ft | 441 kts | 214° |
| 2026-05-04 04:59 | -31.19243 | 151.50436 | 36076 ft | 442 kts | 214° |
| 2026-05-04 04:59 | -31.24950 | 151.47736 | 36084 ft | 442 kts | 214° |
| 2026-05-04 05:00 | -31.30644 | 151.45043 | 36087 ft | 441 kts | 214° |
| 2026-05-04 05:01 | -31.39140 | 151.41007 | 36088 ft | 441 kts | 214° |
| 2026-05-04 05:01 | -31.44887 | 151.38382 | 36089 ft | 445 kts | 213° |
| 2026-05-04 05:02 | -31.50689 | 151.35839 | 36081 ft | 445 kts | 213° |
| 2026-05-04 05:02 | -31.56482 | 151.33282 | 36080 ft | 445 kts | 213° |
| 2026-05-04 05:03 | -31.62269 | 151.30693 | 36089 ft | 445 kts | 213° |
| 2026-05-04 05:04 | -31.73841 | 151.25485 | 36086 ft | 445 kts | 213° |
| 2026-05-04 05:04 | -31.79631 | 151.22882 | 36075 ft | 445 kts | 213° |
| 2026-05-04 05:06 | -32.02805 | 151.12463 | 36078 ft | 447 kts | 213° |
| 2026-05-04 05:07 | -32.08618 | 151.09852 | 36069 ft | 447 kts | 213° |
| 2026-05-04 05:07 | -32.14438 | 151.07246 | 36065 ft | 447 kts | 213° |
| 2026-05-04 05:09 | -32.37660 | 150.96765 | 35039 ft | 446 kts | 213° |
| 2026-05-04 05:09 | -32.40570 | 150.95449 | 34283 ft | 449 kts | 213° |
| 2026-05-04 05:10 | -32.43505 | 150.94114 | 33418 ft | 454 kts | 213° |
| 2026-05-04 05:10 | -32.46469 | 150.92847 | 32544 ft | 466 kts | 207° |
| 2026-05-04 05:10 | -32.49701 | 150.92054 | 31600 ft | 486 kts | 196° |
| 2026-05-04 05:10 | -32.53156 | 150.91915 | 30559 ft | 506 kts | 184° |
| 2026-05-04 05:11 | -32.56700 | 150.92437 | 29456 ft | 519 kts | 178° |
| 2026-05-04 05:11 | -32.60295 | 150.93086 | 28355 ft | 525 kts | 178° |
| 2026-05-04 05:11 | -32.63878 | 150.93729 | 27195 ft | 516 kts | 177° |
| 2026-05-04 05:11 | -32.67405 | 150.94359 | 25878 ft | 510 kts | 176° |
| 2026-05-04 05:12 | -32.70867 | 150.94983 | 25137 ft | 498 kts | 176° |
| 2026-05-04 05:12 | -32.74274 | 150.95593 | 24324 ft | 489 kts | 176° |
| 2026-05-04 05:12 | -32.77596 | 150.96185 | 23608 ft | 477 kts | 176° |
| 2026-05-04 05:12 | -32.80846 | 150.96762 | 22910 ft | 466 kts | 175° |
| 2026-05-04 05:13 | -32.84027 | 150.97324 | 22227 ft | 460 kts | 175° |
| 2026-05-04 05:13 | -32.87178 | 150.97880 | 21545 ft | 456 kts | 175° |
| 2026-05-04 05:13 | -32.90302 | 150.98433 | 20873 ft | 452 kts | 175° |
| 2026-05-04 05:13 | -32.93402 | 150.98983 | 20205 ft | 449 kts | 175° |
| 2026-05-04 05:14 | -32.96483 | 150.99530 | 19554 ft | 445 kts | 175° |
| 2026-05-04 05:14 | -32.99530 | 151.00072 | 18919 ft | 442 kts | 175° |
| 2026-05-04 05:14 | -33.02558 | 151.00610 | 18307 ft | 438 kts | 174° |
| 2026-05-04 05:14 | -33.05556 | 151.01141 | 17717 ft | 434 kts | 174° |
| 2026-05-04 05:15 | -33.08527 | 151.01674 | 17130 ft | 430 kts | 174° |
| 2026-05-04 05:15 | -33.10485 | 151.02025 | 16763 ft | 427 kts | 174° |
| 2026-05-04 05:15 | -33.14386 | 151.02727 | 16032 ft | 421 kts | 174° |
| 2026-05-04 05:15 | -33.16297 | 151.03072 | 15662 ft | 418 kts | 174° |
| 2026-05-04 05:16 | -33.19151 | 151.03586 | 15112 ft | 413 kts | 174° |
| 2026-05-04 05:16 | -33.21978 | 151.04092 | 14547 ft | 409 kts | 174° |
| 2026-05-04 05:16 | -33.24769 | 151.04591 | 13993 ft | 403 kts | 173° |
| 2026-05-04 05:16 | -33.27546 | 151.05106 | 13398 ft | 403 kts | 174° |
| 2026-05-04 05:17 | -33.30298 | 151.05628 | 12792 ft | 400 kts | 173° |
| 2026-05-04 05:17 | -33.33033 | 151.06160 | 12201 ft | 397 kts | 173° |
| 2026-05-04 05:17 | -33.35743 | 151.06695 | 11583 ft | 393 kts | 173° |
| 2026-05-04 05:17 | -33.38434 | 151.07220 | 11039 ft | 388 kts | 173° |
| 2026-05-04 05:18 | -33.41042 | 151.07723 | 10898 ft | 372 kts | 173° |
| 2026-05-04 05:18 | -33.43531 | 151.08204 | 10763 ft | 350 kts | 173° |
| 2026-05-04 05:18 | -33.45855 | 151.08655 | 10634 ft | 327 kts | 173° |
| 2026-05-04 05:18 | -33.48059 | 151.09080 | 10353 ft | 318 kts | 173° |
| 2026-05-04 05:19 | -33.50228 | 151.09495 | 10100 ft | 313 kts | 172° |
| 2026-05-04 05:19 | -33.52368 | 151.09907 | 9893 ft | 309 kts | 172° |
| 2026-05-04 05:19 | -33.54494 | 151.10317 | 9768 ft | 309 kts | 172° |
| 2026-05-04 05:19 | -33.56617 | 151.10723 | 9642 ft | 309 kts | 173° |
| 2026-05-04 05:20 | -33.58741 | 151.11123 | 9476 ft | 309 kts | 172° |
| 2026-05-04 05:20 | -33.60869 | 151.11527 | 9084 ft | 310 kts | 172° |
| 2026-05-04 05:20 | -33.62997 | 151.11940 | 8834 ft | 307 kts | 172° |
| 2026-05-04 05:20 | -33.65099 | 151.12354 | 8712 ft | 305 kts | 172° |
| 2026-05-04 05:21 | -33.67164 | 151.12763 | 8552 ft | 305 kts | 172° |
| 2026-05-04 05:21 | -33.69236 | 151.13413 | 8400 ft | 305 kts | 158° |
| 2026-05-04 05:21 | -33.71077 | 151.14662 | 8239 ft | 305 kts | 142° |
| 2026-05-04 05:21 | -33.72594 | 151.16373 | 8085 ft | 303 kts | 132° |
| 2026-05-04 05:22 | -33.74072 | 151.18222 | 7925 ft | 303 kts | 133° |
| 2026-05-04 05:22 | -33.75533 | 151.20040 | 7763 ft | 303 kts | 133° |
| 2026-05-04 05:22 | -33.76998 | 151.21854 | 7608 ft | 302 kts | 133° |
| 2026-05-04 05:22 | -33.78459 | 151.23665 | 7453 ft | 301 kts | 133° |
| 2026-05-04 05:23 | -33.79895 | 151.25449 | 7301 ft | 300 kts | 133° |
| 2026-05-04 05:23 | -33.81362 | 151.27242 | 7129 ft | 300 kts | 136° |
| 2026-05-04 05:23 | -33.83059 | 151.28688 | 6984 ft | 300 kts | 153° |
| 2026-05-04 05:23 | -33.85004 | 151.29566 | 6828 ft | 299 kts | 168° |
| 2026-05-04 05:24 | -33.87037 | 151.30094 | 6674 ft | 298 kts | 169° |
| 2026-05-04 05:24 | -33.89067 | 151.30622 | 6518 ft | 299 kts | 168° |
| 2026-05-04 05:24 | -33.91094 | 151.31151 | 6363 ft | 297 kts | 168° |
| 2026-05-04 05:24 | -33.93076 | 151.31668 | 6221 ft | 283 kts | 168° |
| 2026-05-04 05:25 | -33.94946 | 151.32157 | 5998 ft | 270 kts | 168° |
| 2026-05-04 05:25 | -33.96754 | 151.32631 | 5722 ft | 263 kts | 168° |
| 2026-05-04 05:25 | -33.98541 | 151.33097 | 5447 ft | 262 kts | 168° |
| 2026-05-04 05:25 | -34.00319 | 151.33564 | 5174 ft | 264 kts | 168° |
| 2026-05-04 05:26 | -34.02138 | 151.34043 | 4883 ft | 271 kts | 168° |
| 2026-05-04 05:26 | -34.03985 | 151.34529 | 4582 ft | 272 kts | 168° |
| 2026-05-04 05:26 | -34.05833 | 151.35014 | 4281 ft | 271 kts | 168° |
| 2026-05-04 05:26 | -34.07672 | 151.35488 | 3980 ft | 270 kts | 168° |
| 2026-05-04 05:27 | -34.09513 | 151.35954 | 3680 ft | 271 kts | 168° |
| 2026-05-04 05:28 | -34.17206 | 151.32166 | 2015 ft | 220 kts | 299° |
| 2026-05-04 05:29 | -34.16301 | 151.30675 | 2009 ft | 221 kts | 302° |
| 2026-05-04 05:29 | -34.15355 | 151.29215 | 2004 ft | 220 kts | 303° |
| 2026-05-04 05:29 | -34.14410 | 151.27761 | 2003 ft | 220 kts | 303° |
| 2026-05-04 05:29 | -34.13434 | 151.26327 | 2004 ft | 222 kts | 309° |
| 2026-05-04 05:31 | -34.03433 | 151.21031 | 1321 ft | 218 kts | 351° |
| 2026-05-04 05:31 | -34.02032 | 151.20668 | 1041 ft | 195 kts | 349° |
| 2026-05-04 05:32 | -34.00799 | 151.20348 | 817 ft | 165 kts | 349° |
| 2026-05-04 05:32 | -33.99770 | 151.20080 | 593 ft | 147 kts | 349° |
| 2026-05-04 05:32 | -33.98763 | 151.19820 | 399 ft | 147 kts | 349° |
| 2026-05-04 05:33 | -33.96877 | 151.19321 | 35 ft | 131 kts | 348° |
| 2026-05-04 05:33 | -33.96115 | 151.19130 | 28 ft | 86 kts | 347° |
| 2026-05-04 05:33 | -33.95658 | 151.19009 | 26 ft | 60 kts | 348° |
| 2026-05-04 05:33 | -33.95324 | 151.18872 | 24 ft | 44 kts | 327° |
| 2026-05-04 05:34 | -33.95162 | 151.18708 | 29 ft | 11 kts | 318° |
| 2026-05-04 05:34 | -33.95108 | 151.18647 | 30 ft | 12 kts | 314° |
| 2026-05-04 05:34 | -33.95093 | 151.18551 | 30 ft | 13 kts | 257° |
| 2026-05-04 05:34 | -33.95114 | 151.18433 | 30 ft | 16 kts | 258° |
| 2026-05-04 05:35 | -33.95138 | 151.18295 | 30 ft | 18 kts | 258° |
| 2026-05-04 05:35 | -33.95167 | 151.18138 | 30 ft | 20 kts | 258° |
| 2026-05-04 05:35 | -33.95184 | 151.18041 | 30 ft | 0 kts | 258° |
| 2026-05-04 05:35 | -33.95186 | 151.18029 | 30 ft | 2 kts | 258° |
| 2026-05-04 05:36 | -33.95186 | 151.18027 | 30 ft | 0 kts | 258° |
| 2026-05-04 05:36 | -33.95189 | 151.18010 | 30 ft | 10 kts | 264° |
| 2026-05-04 05:37 | -33.95083 | 151.17941 | 30 ft | 24 kts | 348° |
| 2026-05-04 05:37 | -33.94908 | 151.17894 | 30 ft | 25 kts | 348° |
| 2026-05-04 05:37 | -33.94777 | 151.17860 | 30 ft | 14 kts | 348° |
| 2026-05-04 05:38 | -33.94664 | 151.17831 | 30 ft | 1 kts | 348° |
| 2026-05-04 05:38 | -33.94647 | 151.17826 | 30 ft | 4 kts | 347° |
| 2026-05-04 05:38 | -33.94610 | 151.17817 | 30 ft | 8 kts | 347° |
| 2026-05-04 05:38 | -33.94526 | 151.17794 | 30 ft | 16 kts | 346° |
| 2026-05-04 05:39 | -33.94402 | 151.17757 | 30 ft | 19 kts | 346° |
| 2026-05-04 05:39 | -33.94154 | 151.17681 | 29 ft | 17 kts | 346° |
| 2026-05-04 05:39 | -33.94028 | 151.17644 | 28 ft | 19 kts | 347° |
| 2026-05-04 05:40 | -33.93762 | 151.17576 | 29 ft | 21 kts | 348° |
| 2026-05-04 05:40 | -33.93613 | 151.17539 | 29 ft | 21 kts | 346° |
| 2026-05-04 05:40 | -33.93492 | 151.17507 | 29 ft | 13 kts | 1° |
| 2026-05-04 05:41 | -33.93471 | 151.17577 | 30 ft | 6 kts | 132° |
| 2026-05-04 05:41 | -33.93506 | 151.17590 | 30 ft | 6 kts | 169° |
| 2026-05-04 05:41 | -33.93544 | 151.17604 | 30 ft | 5 kts | 145° |
| 2026-05-04 05:41 | -33.93554 | 151.17647 | 30 ft | 6 kts | 98° |
| 2026-05-04 05:42 | -33.93558 | 151.17677 | 30 ft | 3 kts | 100° |
| 2026-05-04 05:42 | -33.93559 | 151.17687 | 30 ft | 0 kts | 100° |